Time;durP1;ratioP1;P1;durP2;ratioP2;P2;SDS_P1;SDS_P2;PMS_P1;PMS_P2;Temp;Humidity;BMP_temperature;BMP_pressure;BME280_temperature;BME280_humidity;BME280_pressure;Samples;Min_cycle;Max_cycle;Signal;HPM_P1;HPM_P2
2021/10/11 00:00:43;;;;;;;21.80;11.95;;;16.20;54.60;;;;;;5045619;28;20362;-83
2021/10/11 00:03:10;;;;;;;18.90;11.20;;;16.10;54.50;;;;;;5045749;28;20072;-86
2021/10/11 00:05:36;;;;;;;20.50;11.88;;;16.10;54.50;;;;;;5047675;28;20048;-84
2021/10/11 00:08:01;;;;;;;22.00;11.05;;;16.10;54.60;;;;;;5044675;28;20057;-83
2021/10/11 00:10:28;;;;;;;22.08;11.35;;;16.00;54.70;;;;;;5024944;28;20030;-86
2021/10/11 00:12:54;;;;;;;20.15;11.23;;;16.00;54.60;;;;;;5038448;28;20045;-84
2021/10/11 00:15:24;;;;;;;16.42;10.80;;;16.10;54.50;;;;;;5028496;28;20033;-85
2021/10/11 00:17:51;;;;;;;16.90;11.10;;;16.10;54.50;;;;;;5018377;28;20062;-84
2021/10/11 00:20:17;;;;;;;19.67;11.45;;;16.00;54.40;;;;;;5027941;28;20540;-84
2021/10/11 00:22:43;;;;;;;19.73;12.38;;;16.00;54.50;;;;;;5014464;28;20033;-84
2021/10/11 00:25:09;;;;;;;17.80;10.75;;;16.00;54.50;;;;;;5013974;28;20038;-84
2021/10/11 00:27:36;;;;;;;17.60;11.40;;;16.00;54.60;;;;;;5028981;28;20041;-83
2021/10/11 00:30:05;;;;;;;18.10;11.45;;;16.00;54.60;;;;;;5027727;28;20083;-85
2021/10/11 00:32:31;;;;;;;19.83;11.48;;;15.90;54.60;;;;;;5004286;28;20566;-85
2021/10/11 00:34:57;;;;;;;15.93;10.90;;;16.00;54.60;;;;;;5007715;28;20164;-83
2021/10/11 00:37:23;;;;;;;17.45;10.88;;;15.90;54.60;;;;;;5028717;28;20049;-85
2021/10/11 00:39:49;;;;;;;17.80;11.15;;;15.90;54.70;;;;;;5028622;28;20056;-87
2021/10/11 00:42:15;;;;;;;18.48;10.60;;;15.90;54.70;;;;;;5025754;28;20041;-87
2021/10/11 00:44:41;;;;;;;18.55;11.02;;;15.90;54.70;;;;;;5026152;28;20038;-86
2021/10/11 00:47:07;;;;;;;17.60;10.98;;;15.90;54.60;;;;;;5024272;28;20032;-88
2021/10/11 00:49:33;;;;;;;18.92;10.88;;;15.90;54.60;;;;;;5024367;28;20318;-88
2021/10/11 00:51:59;;;;;;;19.33;10.95;;;15.80;54.70;;;;;;5026545;28;20041;-86
2021/10/11 00:54:26;;;;;;;18.48;11.48;;;15.80;54.70;;;;;;5028667;28;20029;-86
2021/10/11 00:56:52;;;;;;;18.48;10.85;;;15.80;54.70;;;;;;5031229;28;20060;-86
2021/10/11 00:59:18;;;;;;;16.30;10.68;;;15.80;54.80;;;;;;5027222;28;20029;-80
2021/10/11 01:01:44;;;;;;;22.50;10.77;;;15.80;54.80;;;;;;5025788;28;20029;-84
2021/10/11 01:04:10;;;;;;;20.15;10.60;;;15.80;54.70;;;;;;5026258;28;20040;-84
2021/10/11 01:06:39;;;;;;;17.48;10.68;;;15.80;54.80;;;;;;5024283;28;20049;-84
2021/10/11 01:09:06;;;;;;;20.20;11.15;;;15.70;54.70;;;;;;5027306;28;20036;-86
2021/10/11 01:11:32;;;;;;;15.65;10.95;;;15.70;54.60;;;;;;5026935;28;20089;-84
2021/10/11 01:13:58;;;;;;;18.55;10.70;;;15.70;54.70;;;;;;5028153;28;20140;-81
2021/10/11 01:16:24;;;;;;;16.10;10.32;;;15.70;54.60;;;;;;5029475;28;20033;-85
2021/10/11 01:18:50;;;;;;;18.27;10.70;;;15.70;54.50;;;;;;5018286;28;20041;-84
2021/10/11 01:21:16;;;;;;;23.38;11.55;;;15.70;54.50;;;;;;5033416;28;20041;-83
2021/10/11 01:23:42;;;;;;;20.15;10.70;;;15.70;54.50;;;;;;5038883;28;20048;-83
2021/10/11 01:26:08;;;;;;;16.05;10.77;;;15.70;54.50;;;;;;5034899;28;20029;-81
2021/10/11 01:28:34;;;;;;;16.75;10.95;;;15.60;54.50;;;;;;5032313;28;20025;-83
2021/10/11 01:30:59;;;;;;;19.88;10.98;;;15.60;54.40;;;;;;5028477;28;20088;-83
2021/10/11 01:33:25;;;;;;;15.93;10.23;;;15.60;54.40;;;;;;5010747;28;20040;-82
2021/10/11 01:35:51;;;;;;;16.65;10.75;;;15.60;54.40;;;;;;5033882;28;20395;-85
2021/10/11 01:38:17;;;;;;;20.17;10.48;;;15.60;54.40;;;;;;5034755;28;20155;-79
2021/10/11 01:40:43;;;;;;;21.05;11.25;;;15.60;54.40;;;;;;5033375;28;20088;-85
2021/10/11 01:43:10;;;;;;;19.63;10.50;;;15.50;54.40;;;;;;5023525;28;20038;-85
2021/10/11 01:45:37;;;;;;;15.27;10.68;;;15.60;54.40;;;;;;5021851;28;20037;-85
2021/10/11 01:48:04;;;;;;;18.90;10.45;;;15.50;54.30;;;;;;5005958;28;20060;-85
2021/10/11 01:50:32;;;;;;;17.38;10.48;;;15.50;54.30;;;;;;5024773;28;20038;-85
2021/10/11 01:52:58;;;;;;;16.42;10.07;;;15.50;54.30;;;;;;5022225;28;20262;-84
2021/10/11 01:55:24;;;;;;;17.80;11.10;;;15.50;54.20;;;;;;5025304;28;20128;-85
2021/10/11 01:57:50;;;;;;;16.70;9.90;;;15.50;54.20;;;;;;5005221;28;20077;-83
2021/10/11 02:00:16;;;;;;;16.98;10.10;;;15.50;54.20;;;;;;5022232;28;20451;-84
2021/10/11 02:02:42;;;;;;;14.50;9.95;;;15.50;54.30;;;;;;5023855;28;20048;-83
2021/10/11 02:05:09;;;;;;;15.23;10.48;;;15.50;54.20;;;;;;5023828;28;20041;-84
2021/10/11 02:07:35;;;;;;;17.85;11.10;;;15.50;54.10;;;;;;5005810;28;20076;-86
2021/10/11 02:10:01;;;;;;;19.15;10.38;;;15.50;54.20;;;;;;5024953;28;20490;-83
2021/10/11 02:12:28;;;;;;;15.77;10.75;;;15.50;54.10;;;;;;5022203;28;20073;-86
2021/10/11 02:14:54;;;;;;;15.77;10.77;;;15.50;54.10;;;;;;5021824;28;20111;-85
2021/10/11 02:17:20;;;;;;;16.25;10.95;;;15.40;54.00;;;;;;5005267;28;20494;-84
2021/10/11 02:19:46;;;;;;;16.60;9.63;;;15.50;54.10;;;;;;4988712;28;20354;-86
2021/10/11 02:22:13;;;;;;;14.10;10.45;;;15.50;54.00;;;;;;5022373;28;20612;-85
2021/10/11 02:24:39;;;;;;;15.40;10.63;;;15.40;54.00;;;;;;5023049;28;20037;-85
2021/10/11 02:27:05;;;;;;;16.10;10.80;;;15.40;54.00;;;;;;5023702;28;20045;-85
2021/10/11 02:29:31;;;;;;;17.08;10.48;;;15.40;54.00;;;;;;5024105;28;20036;-84
2021/10/11 02:31:57;;;;;;;18.77;10.30;;;15.40;53.90;;;;;;5023120;28;20030;-85
2021/10/11 02:34:23;;;;;;;19.85;10.20;;;15.40;53.90;;;;;;5005753;28;20037;-85
2021/10/11 02:36:50;;;;;;;16.80;10.27;;;15.40;54.00;;;;;;5024088;28;20064;-86
2021/10/11 02:39:16;;;;;;;16.15;10.73;;;15.30;54.00;;;;;;5022483;28;20411;-85
2021/10/11 02:41:42;;;;;;;16.98;10.30;;;15.30;53.90;;;;;;5006033;28;20548;-83
2021/10/11 02:44:08;;;;;;;14.10;10.32;;;15.30;53.90;;;;;;5022603;28;20116;-85
2021/10/11 02:46:33;;;;;;;16.20;9.57;;;15.30;53.80;;;;;;5022428;28;20079;-84
2021/10/11 02:49:00;;;;;;;17.45;9.93;;;15.30;53.70;;;;;;5024334;28;20095;-85
2021/10/11 02:51:26;;;;;;;18.02;10.35;;;15.30;53.90;;;;;;5023185;28;20036;-85
2021/10/11 02:53:52;;;;;;;14.10;9.70;;;15.30;53.80;;;;;;5023031;28;20025;-86
2021/10/11 02:56:19;;;;;;;15.80;10.00;;;15.30;53.80;;;;;;5025982;28;20029;-83
2021/10/11 02:58:46;;;;;;;15.52;9.70;;;15.30;53.70;;;;;;5025291;28;20515;-86
2021/10/11 03:01:12;;;;;;;16.13;10.45;;;15.30;53.90;;;;;;5024923;28;20037;-84
2021/10/11 03:03:38;;;;;;;16.73;11.13;;;15.20;53.80;;;;;;5024407;28;20041;-83
2021/10/11 03:06:05;;;;;;;15.82;10.95;;;15.30;53.90;;;;;;5023268;28;20041;-81
2021/10/11 03:08:34;;;;;;;16.88;10.07;;;15.20;53.80;;;;;;5021251;28;20368;-85
2021/10/11 03:11:01;;;;;;;16.02;10.00;;;15.30;53.80;;;;;;5009418;28;20037;-85
2021/10/11 03:13:28;;;;;;;15.80;9.88;;;15.30;53.80;;;;;;5021458;28;20041;-87
2021/10/11 03:15:54;;;;;;;17.40;10.43;;;15.30;53.90;;;;;;5021238;28;20033;-86
2021/10/11 03:18:20;;;;;;;15.60;9.73;;;15.20;54.00;;;;;;5024854;28;20400;-87
2021/10/11 03:20:46;;;;;;;18.70;10.80;;;15.20;54.10;;;;;;5025495;28;20045;-85
2021/10/11 03:23:12;;;;;;;13.85;9.95;;;15.20;54.10;;;;;;5024148;28;20041;-85
2021/10/11 03:25:38;;;;;;;16.58;9.98;;;15.10;54.20;;;;;;5008501;28;20404;-81
2021/10/11 03:28:04;;;;;;;15.02;10.32;;;15.10;54.10;;;;;;5008516;28;20045;-84
2021/10/11 03:30:31;;;;;;;17.45;10.82;;;15.20;54.30;;;;;;5023681;28;20164;-84
2021/10/11 03:32:57;;;;;;;16.80;10.27;;;15.20;54.30;;;;;;5022723;28;20546;-85
2021/10/11 03:35:23;;;;;;;16.75;10.50;;;15.20;54.40;;;;;;5022484;28;20067;-84
2021/10/11 03:37:49;;;;;;;16.98;10.52;;;15.10;54.40;;;;;;5021310;28;20484;-85
2021/10/11 03:40:15;;;;;;;16.95;10.68;;;15.20;54.40;;;;;;5023418;28;20033;-85
2021/10/11 03:42:42;;;;;;;18.88;11.27;;;15.20;54.50;;;;;;5022299;28;20048;-85
2021/10/11 03:45:08;;;;;;;17.00;10.85;;;15.20;54.60;;;;;;5023130;28;20062;-85
2021/10/11 03:47:37;;;;;;;18.45;10.52;;;15.20;54.60;;;;;;5021209;28;20060;-83
2021/10/11 03:50:04;;;;;;;17.08;10.65;;;15.10;54.70;;;;;;5023638;28;20110;-83
2021/10/11 03:52:30;;;;;;;18.85;11.35;;;15.20;54.80;;;;;;5006440;28;20021;-86
2021/10/11 03:54:57;;;;;;;18.05;11.07;;;15.10;54.70;;;;;;5004312;28;20419;-85
2021/10/11 03:57:23;;;;;;;20.30;11.07;;;15.10;54.70;;;;;;5022356;28;20049;-85
2021/10/11 03:59:49;;;;;;;22.23;11.77;;;15.10;54.70;;;;;;5023727;28;20030;-88
2021/10/11 04:02:15;;;;;;;16.67;11.52;;;15.10;54.60;;;;;;5023334;28;20108;-84
2021/10/11 04:04:41;;;;;;;18.73;10.75;;;15.10;54.60;;;;;;5021082;28;20058;-85
2021/10/11 04:07:09;;;;;;;17.75;11.07;;;15.10;54.80;;;;;;5022694;28;20036;-85
2021/10/11 04:09:36;;;;;;;20.52;11.60;;;15.10;54.70;;;;;;5022062;28;20037;-83
2021/10/11 04:12:21;;;;;;;18.77;11.32;;;15.10;54.80;;;;;;5005116;28;20041;-81
2021/10/11 04:14:48;;;;;;;17.52;11.13;;;15.10;54.70;;;;;;5022697;28;20187;-82
2021/10/11 04:17:14;;;;;;;20.27;11.52;;;15.10;54.70;;;;;;5026540;28;20041;-82
2021/10/11 04:19:40;;;;;;;17.98;11.45;;;15.10;54.90;;;;;;5024813;28;20049;-82
2021/10/11 04:22:07;;;;;;;23.73;12.43;;;15.10;55.00;;;;;;5007350;28;20045;-83
2021/10/11 04:24:33;;;;;;;19.65;11.05;;;15.10;55.00;;;;;;5009620;28;20044;-83
2021/10/11 04:26:59;;;;;;;20.50;12.73;;;15.10;55.10;;;;;;5024076;28;20030;-80
2021/10/11 04:29:24;;;;;;;19.58;12.45;;;15.00;55.10;;;;;;5023982;28;20380;-82
2021/10/11 04:31:50;;;;;;;17.13;11.82;;;15.10;55.20;;;;;;5027945;28;20087;-82
2021/10/11 04:34:16;;;;;;;21.77;12.57;;;15.00;55.40;;;;;;5023919;28;20038;-82
2021/10/11 04:36:42;;;;;;;19.35;13.15;;;15.00;55.30;;;;;;5025818;28;20044;-81
2021/10/11 04:39:08;;;;;;;21.00;12.77;;;15.00;55.30;;;;;;5027778;28;20068;-81
2021/10/11 04:41:34;;;;;;;23.15;12.77;;;15.00;55.20;;;;;;5006579;28;20187;-82
2021/10/11 04:44:00;;;;;;;25.95;13.20;;;15.10;55.30;;;;;;5011745;28;20029;-81
2021/10/11 04:46:26;;;;;;;21.25;12.32;;;15.10;55.40;;;;;;5026037;28;20488;-82
2021/10/11 04:48:52;;;;;;;22.33;13.25;;;15.10;55.40;;;;;;5024911;28;20072;-82
2021/10/11 04:51:18;;;;;;;19.90;13.07;;;15.10;55.50;;;;;;5022616;28;20021;-83
2021/10/11 04:53:44;;;;;;;24.52;13.00;;;15.10;56.10;;;;;;5025275;28;20423;-82
2021/10/11 04:56:10;;;;;;;24.15;13.18;;;15.10;55.60;;;;;;5009569;28;20137;-81
2021/10/11 04:58:36;;;;;;;23.90;13.65;;;15.00;55.70;;;;;;5007976;28;20053;-82
2021/10/11 05:01:02;;;;;;;21.73;13.27;;;15.10;56.40;;;;;;5024589;28;20041;-81
2021/10/11 05:03:28;;;;;;;23.30;12.90;;;15.10;55.70;;;;;;5026484;28;20033;-83
2021/10/11 05:05:54;;;;;;;24.38;13.70;;;15.20;55.80;;;;;;5006912;28;20033;-81
2021/10/11 05:08:20;;;;;;;27.10;14.25;;;15.20;55.60;;;;;;5025052;28;20036;-82
2021/10/11 05:10:46;;;;;;;25.77;14.55;;;15.40;55.60;;;;;;5025333;28;20080;-83
2021/10/11 05:13:12;;;;;;;25.90;13.93;;;15.50;55.30;;;;;;5021806;28;20087;-83
2021/10/11 05:15:38;;;;;;;23.83;13.63;;;15.70;55.10;;;;;;5024605;28;20047;-83
2021/10/11 05:18:04;;;;;;;27.15;14.65;;;15.90;54.90;;;;;;5010285;28;20041;-83
2021/10/11 05:20:33;;;;;;;22.00;14.73;;;16.00;54.70;;;;;;5023845;28;20091;-82
2021/10/11 05:22:59;;;;;;;26.67;13.77;;;16.20;54.50;;;;;;5024558;28;20796;-81
2021/10/11 05:25:29;;;;;;;28.88;14.35;;;16.30;54.50;;;;;;5025621;28;20408;-82
2021/10/11 05:27:55;;;;;;;23.90;14.57;;;16.50;54.50;;;;;;5022552;28;20029;-82
2021/10/11 05:30:21;;;;;;;31.77;14.57;;;16.60;54.40;;;;;;5005416;28;20124;-82
2021/10/11 05:32:47;;;;;;;20.98;13.55;;;16.70;54.30;;;;;;5002420;28;20168;-83
2021/10/11 05:35:13;;;;;;;21.63;13.30;;;16.80;54.20;;;;;;5023292;28;20392;-84
2021/10/11 05:37:39;;;;;;;23.33;12.88;;;16.90;54.10;;;;;;5024960;28;20136;-80
2021/10/11 05:40:09;;;;;;;21.90;13.25;;;17.00;54.20;;;;;;5023793;28;20094;-81
2021/10/11 05:42:35;;;;;;;19.90;12.68;;;17.10;54.20;;;;;;5023585;28;20037;-82
2021/10/11 05:45:01;;;;;;;18.80;12.35;;;17.20;54.20;;;;;;5022836;28;20065;-83
2021/10/11 05:47:27;;;;;;;20.98;12.35;;;17.30;54.20;;;;;;5022663;28;20065;-82
2021/10/11 05:49:52;;;;;;;21.02;13.30;;;17.40;54.20;;;;;;5025265;28;20032;-83
2021/10/11 05:52:18;;;;;;;21.23;12.73;;;17.50;54.20;;;;;;5004820;28;20083;-82
2021/10/11 05:54:44;;;;;;;19.67;12.38;;;17.60;54.30;;;;;;5010700;28;20065;-83
2021/10/11 05:57:10;;;;;;;21.02;12.73;;;17.70;54.30;;;;;;5022357;28;20053;-83
2021/10/11 05:59:36;;;;;;;21.17;13.43;;;17.70;54.20;;;;;;5022934;28;20042;-84
2021/10/11 06:02:02;;;;;;;20.13;12.52;;;17.80;54.20;;;;;;5022406;28;20464;-83
2021/10/11 06:04:28;;;;;;;19.80;12.65;;;17.90;54.20;;;;;;5022133;28;20037;-83
2021/10/11 06:06:54;;;;;;;21.77;13.38;;;18.00;54.20;;;;;;5004709;28;20573;-83
2021/10/11 06:09:20;;;;;;;19.92;13.02;;;18.10;54.20;;;;;;5019394;28;20580;-81
2021/10/11 06:11:46;;;;;;;21.15;13.02;;;18.20;54.10;;;;;;5027932;28;20064;-84
2021/10/11 06:14:12;;;;;;;20.50;13.20;;;18.30;54.10;;;;;;5023380;28;20103;-84
2021/10/11 06:16:38;;;;;;;17.90;12.50;;;18.30;54.60;;;;;;5009445;28;20555;-84
2021/10/11 06:19:04;;;;;;;21.92;12.63;;;18.50;54.00;;;;;;5021922;28;20042;-83
2021/10/11 06:21:30;;;;;;;19.05;12.13;;;18.50;54.00;;;;;;5023660;28;20420;-83
2021/10/11 06:23:56;;;;;;;20.02;12.25;;;18.60;53.90;;;;;;5022930;28;20372;-84
2021/10/11 06:26:22;;;;;;;17.55;12.00;;;18.70;53.70;;;;;;5002160;28;20048;-82
2021/10/11 06:28:48;;;;;;;25.98;13.93;;;18.80;53.90;;;;;;5004595;28;20104;-83
2021/10/11 06:31:14;;;;;;;23.27;14.43;;;18.80;53.30;;;;;;5005557;28;20698;-83
2021/10/11 06:33:40;;;;;;;27.45;17.65;;;18.90;50.90;;;;;;4997494;28;20029;-82
2021/10/11 06:36:06;;;;;;;32.35;20.25;;;19.00;49.40;;;;;;5022483;28;20085;-82
2021/10/11 06:38:32;;;;;;;38.15;21.85;;;19.00;48.40;;;;;;5021303;28;20435;-83
2021/10/11 06:40:58;;;;;;;37.92;20.05;;;19.10;48.10;;;;;;5024399;28;20092;-83
2021/10/11 06:43:24;;;;;;;32.97;18.30;;;19.20;47.60;;;;;;5004534;28;20489;-82
2021/10/11 06:45:50;;;;;;;33.85;18.35;;;19.30;47.40;;;;;;5023073;28;20037;-82
2021/10/11 06:48:18;;;;;;;31.52;18.13;;;19.30;47.10;;;;;;5024858;28;20027;-83
2021/10/11 06:50:45;;;;;;;28.40;17.00;;;19.40;46.90;;;;;;5006804;28;20136;-83
2021/10/11 06:53:11;;;;;;;28.80;16.73;;;19.40;46.80;;;;;;5022532;28;20132;-82
2021/10/11 06:55:37;;;;;;;27.27;16.33;;;19.50;46.90;;;;;;5025864;28;20040;-83
2021/10/11 06:58:03;;;;;;;31.65;16.25;;;19.60;46.60;;;;;;5029068;28;20049;-82
2021/10/11 07:00:29;;;;;;;26.95;16.50;;;19.60;46.60;;;;;;5029590;28;20079;-82
2021/10/11 07:02:55;;;;;;;27.13;17.02;;;19.60;46.50;;;;;;5032804;28;20041;-82
2021/10/11 07:05:21;;;;;;;37.03;18.23;;;19.70;46.40;;;;;;5014113;28;20049;-81
2021/10/11 07:07:47;;;;;;;27.58;15.38;;;19.70;46.20;;;;;;5037487;28;20047;-82
2021/10/11 07:10:13;;;;;;;27.83;16.75;;;19.70;46.10;;;;;;5039597;28;20135;-81
2021/10/11 07:12:40;;;;;;;28.98;16.58;;;19.80;46.30;;;;;;5030822;28;20660;-81
2021/10/11 07:15:06;;;;;;;29.08;16.27;;;19.80;45.70;;;;;;5031045;28;20043;-81
2021/10/11 07:17:32;;;;;;;28.48;16.63;;;19.80;45.70;;;;;;5030996;28;20056;-79
2021/10/11 07:19:58;;;;;;;32.60;17.55;;;19.90;45.90;;;;;;5032832;28;20041;-81
2021/10/11 07:22:24;;;;;;;28.77;16.30;;;19.90;46.10;;;;;;5034152;28;20064;-81
2021/10/11 07:24:50;;;;;;;25.52;15.93;;;19.90;45.90;;;;;;5029448;28;20111;-81
2021/10/11 07:27:16;;;;;;;32.33;15.85;;;19.90;46.20;;;;;;5031592;28;20037;-81
2021/10/11 07:29:42;;;;;;;23.52;15.32;;;19.90;46.30;;;;;;5028414;28;20050;-81
2021/10/11 07:32:08;;;;;;;29.05;15.35;;;19.90;46.00;;;;;;5031310;28;20033;-81
2021/10/11 07:34:35;;;;;;;24.58;15.90;;;19.90;45.90;;;;;;5031596;28;20084;-81
2021/10/11 07:37:02;;;;;;;27.98;15.40;;;19.90;46.10;;;;;;5014420;28;20393;-81
2021/10/11 07:39:28;;;;;;;22.83;14.57;;;20.00;45.90;;;;;;5030274;28;20071;-81
2021/10/11 07:41:54;;;;;;;25.27;14.40;;;20.00;46.70;;;;;;5031876;28;20044;-81
2021/10/11 07:44:20;;;;;;;29.33;14.32;;;20.00;45.60;;;;;;5031406;28;20083;-81
2021/10/11 07:46:52;;;;;;;23.08;13.80;;;20.00;45.40;;;;;;5031105;28;20041;-81
2021/10/11 07:49:18;;;;;;;22.88;14.38;;;19.90;45.10;;;;;;5030979;28;20464;-81
2021/10/11 07:51:43;;;;;;;26.15;14.32;;;20.00;44.80;;;;;;5029322;28;20072;-82
2021/10/11 07:54:09;;;;;;;27.02;13.77;;;19.90;44.90;;;;;;5033179;28;20022;-83
2021/10/11 07:56:37;;;;;;;24.05;13.77;;;19.90;44.70;;;;;;5018098;28;20625;-82
2021/10/11 07:59:03;;;;;;;25.83;13.00;;;19.90;44.50;;;;;;5032699;28;20034;-82
2021/10/11 08:01:30;;;;;;;21.45;12.90;;;19.90;44.40;;;;;;5035690;28;20059;-81
2021/10/11 08:03:55;;;;;;;20.48;12.68;;;19.90;43.80;;;;;;5035629;28;20090;-81
2021/10/11 08:06:21;;;;;;;32.05;18.48;;;19.80;43.80;;;;;;5035928;28;20038;-82
2021/10/11 08:08:47;;;;;;;37.13;19.63;;;19.80;43.70;;;;;;5033403;28;20033;-81
2021/10/11 08:11:13;;;;;;;29.15;16.55;;;19.80;44.00;;;;;;5018009;28;20049;-81
2021/10/11 08:13:39;;;;;;;24.58;16.27;;;19.70;44.00;;;;;;5035612;28;20232;-80
2021/10/11 08:16:06;;;;;;;21.27;15.07;;;19.70;44.00;;;;;;5030890;28;20139;-82
2021/10/11 08:18:32;;;;;;;26.30;14.80;;;19.70;44.00;;;;;;5028720;28;20034;-83
2021/10/11 08:20:58;;;;;;;19.02;13.25;;;19.70;43.70;;;;;;5024345;28;20046;-83
2021/10/11 08:23:24;;;;;;;22.05;14.18;;;19.60;43.60;;;;;;5024870;28;20068;-82
2021/10/11 08:25:50;;;;;;;21.60;13.63;;;19.70;44.20;;;;;;5023627;28;20066;-84
2021/10/11 08:28:16;;;;;;;25.48;14.13;;;19.60;43.10;;;;;;5023427;28;20022;-81
2021/10/11 08:30:43;;;;;;;24.45;13.02;;;19.60;43.00;;;;;;5011544;28;20049;-82
2021/10/11 08:33:09;;;;;;;25.58;12.90;;;19.50;43.40;;;;;;5026503;28;20033;-88
2021/10/11 08:35:35;;;;;;;17.52;12.13;;;19.50;43.90;;;;;;5012396;28;20195;-80
2021/10/11 08:38:01;;;;;;;19.83;12.13;;;19.50;43.60;;;;;;5025112;28;20508;-83
2021/10/11 08:40:27;;;;;;;22.50;11.32;;;19.50;43.90;;;;;;5025260;28;20030;-82
2021/10/11 08:42:53;;;;;;;19.02;12.15;;;19.50;43.70;;;;;;5024893;28;20168;-82
2021/10/11 08:45:19;;;;;;;18.48;10.90;;;19.40;44.00;;;;;;5022414;28;20121;-81
2021/10/11 08:47:46;;;;;;;19.40;11.25;;;19.40;43.60;;;;;;5022214;28;20381;-82
2021/10/11 08:50:15;;;;;;;18.15;11.15;;;19.40;43.30;;;;;;5023019;28;20033;-82
2021/10/11 08:52:41;;;;;;;20.00;11.20;;;19.40;43.20;;;;;;5022032;28;20034;-82
2021/10/11 08:55:08;;;;;;;17.55;10.32;;;19.30;43.40;;;;;;5023237;28;20052;-82
2021/10/11 08:57:35;;;;;;;16.30;9.35;;;19.30;43.20;;;;;;5022647;28;20064;-82
2021/10/11 09:00:19;;;;;;;21.25;9.93;;;19.20;43.00;;;;;;5005007;28;20029;-82
2021/10/11 09:02:59;;;;;;;16.88;10.05;;;19.20;43.10;;;;;;5022228;28;20458;-81
2021/10/11 09:05:32;;;;;;;15.60;8.65;;;19.20;43.60;;;;;;5020896;28;20033;-81
2021/10/11 09:08:05;;;;;;;21.45;9.43;;;19.20;43.30;;;;;;5020706;28;20022;-83
2021/10/11 09:10:51;;;;;;;12.32;9.25;;;19.10;43.50;;;;;;5022604;28;20029;-83
2021/10/11 09:13:19;;;;;;;16.02;9.00;;;19.10;43.00;;;;;;5022200;28;20034;-82
2021/10/11 09:15:45;;;;;;;18.10;8.90;;;19.00;43.10;;;;;;5021710;28;20076;-83
2021/10/11 09:18:12;;;;;;;13.85;8.65;;;19.00;42.80;;;;;;5022074;28;20041;-83
2021/10/11 09:20:40;;;;;;;13.10;8.88;;;19.00;43.10;;;;;;5021740;28;20389;-83
2021/10/11 09:23:08;;;;;;;14.25;8.13;;;18.90;43.20;;;;;;5021487;28;20500;-84
2021/10/11 09:25:39;;;;;;;13.93;8.23;;;18.90;42.70;;;;;;5021599;28;20051;-84
2021/10/11 09:28:07;;;;;;;13.68;8.20;;;18.90;43.10;;;;;;5004426;28;20088;-82
2021/10/11 09:30:35;;;;;;;10.82;8.38;;;18.90;43.10;;;;;;5022750;28;20041;-82
2021/10/11 09:33:07;;;;;;;13.88;8.52;;;18.80;42.80;;;;;;5004120;28;20032;-82
2021/10/11 09:35:34;;;;;;;14.65;9.13;;;18.80;43.20;;;;;;5008497;28;20045;-82
2021/10/11 09:38:00;;;;;;;14.30;8.32;;;18.80;43.30;;;;;;5022406;28;20124;-82
2021/10/11 09:40:26;;;;;;;12.93;8.68;;;18.80;43.50;;;;;;5005232;28;20124;-85
2021/10/11 09:42:53;;;;;;;11.05;8.48;;;18.80;42.80;;;;;;5021845;28;20389;-81
2021/10/11 09:45:25;;;;;;;15.75;8.15;;;18.70;43.10;;;;;;5023069;28;20041;-82
2021/10/11 09:47:51;;;;;;;16.70;11.50;;;18.70;43.10;;;;;;5000276;28;20045;-82
2021/10/11 09:50:17;;;;;;;16.35;10.73;;;18.70;43.40;;;;;;5020902;28;20037;-80
2021/10/11 09:52:44;;;;;;;14.30;11.30;;;18.70;43.30;;;;;;5006654;28;20632;-82
2021/10/11 09:55:13;;;;;;;14.35;9.55;;;18.70;43.10;;;;;;5021954;28;20037;-83
2021/10/11 09:57:39;;;;;;;17.90;8.90;;;18.60;43.20;;;;;;5021324;28;20061;-83
2021/10/11 10:00:10;;;;;;;18.08;9.48;;;18.60;42.80;;;;;;5022416;28;20030;-84
2021/10/11 10:02:46;;;;;;;15.70;8.35;;;18.60;42.70;;;;;;5021674;28;21399;-83
2021/10/11 10:05:17;;;;;;;14.98;8.10;;;18.60;42.60;;;;;;5024045;28;20033;-83
2021/10/11 10:07:47;;;;;;;12.20;8.02;;;18.60;42.40;;;;;;5022315;28;20039;-83
2021/10/11 10:10:13;;;;;;;13.25;7.30;;;18.60;42.60;;;;;;5019795;28;20455;-83
2021/10/11 10:12:58;;;;;;;13.55;7.63;;;18.50;42.40;;;;;;5001993;28;20087;-83
2021/10/11 10:15:32;;;;;;;12.63;7.80;;;18.50;42.70;;;;;;5021043;28;20076;-83
2021/10/11 10:18:10;;;;;;;13.18;7.68;;;18.50;42.70;;;;;;5019857;28;20034;-84
2021/10/11 10:20:50;;;;;;;13.50;7.07;;;18.50;42.20;;;;;;5022833;28;20618;-86
2021/10/11 10:23:23;;;;;;;17.67;7.35;;;18.50;42.10;;;;;;5031324;28;20030;-80
2021/10/11 10:25:49;;;;;;;11.00;5.82;;;18.50;43.10;;;;;;5032819;28;20479;-80
2021/10/11 10:28:16;;;;;;;22.77;6.50;;;18.60;46.00;;;;;;5024701;28;20121;-82
2021/10/11 10:30:42;;;;;;;11.98;6.18;;;18.60;47.30;;;;;;5005588;28;20039;-81
2021/10/11 10:33:16;;;;;;;8.77;5.50;;;18.70;47.00;;;;;;5013019;28;20404;-82
2021/10/11 10:35:47;;;;;;;10.57;6.30;;;18.80;47.50;;;;;;5025233;28;20037;-85
2021/10/11 10:38:18;;;;;;;7.90;5.70;;;18.90;47.60;;;;;;5024819;28;20455;-85
2021/10/11 10:40:44;;;;;;;8.52;5.85;;;18.90;44.80;;;;;;5007687;28;20040;-87
2021/10/11 10:43:15;;;;;;;9.60;5.68;;;18.90;43.00;;;;;;5037157;28;20041;-84
2021/10/11 10:45:41;;;;;;;7.95;5.70;;;18.90;42.40;;;;;;5030955;28;20454;-91
2021/10/11 10:48:26;;;;;;;7.30;4.85;;;18.90;41.80;;;;;;5037893;28;20103;-85
2021/10/11 10:50:57;;;;;;;10.70;5.32;;;18.80;41.50;;;;;;5007660;28;20033;-87
2021/10/11 10:53:27;;;;;;;8.48;4.60;;;18.80;41.30;;;;;;5033190;28;20087;-91
2021/10/11 10:55:54;;;;;;;6.82;4.95;;;18.70;41.10;;;;;;5013956;28;20038;-93
2021/10/11 10:58:22;;;;;;;8.95;4.43;;;18.70;41.00;;;;;;5024012;28;20496;-89
2021/10/11 11:00:49;;;;;;;6.53;4.95;;;18.70;41.30;;;;;;5032869;28;20071;-83
2021/10/11 11:03:19;;;;;;;7.78;5.00;;;18.70;40.80;;;;;;5031699;28;20488;-83
2021/10/11 11:05:50;;;;;;;8.30;4.28;;;18.70;41.10;;;;;;5031965;28;20084;-83
2021/10/11 11:08:18;;;;;;;6.50;5.20;;;18.70;41.40;;;;;;5008074;28;20083;-82
2021/10/11 11:10:44;;;;;;;7.53;5.05;;;18.60;41.40;;;;;;5022177;28;20088;-83
2021/10/11 11:13:16;;;;;;;7.90;4.82;;;18.60;41.60;;;;;;5022352;28;20412;-83
2021/10/11 11:15:47;;;;;;;6.85;4.47;;;18.60;42.20;;;;;;5022992;28;20046;-83
2021/10/11 11:18:24;;;;;;;8.25;5.30;;;18.60;41.50;;;;;;5023953;28;20415;-83
2021/10/11 11:20:52;;;;;;;8.25;5.00;;;18.50;41.30;;;;;;5025077;28;20088;-82
2021/10/11 11:23:22;;;;;;;7.70;5.38;;;18.50;40.80;;;;;;5023462;28;20041;-82
2021/10/11 11:25:51;;;;;;;8.55;5.15;;;18.50;40.90;;;;;;5025217;28;20053;-82
2021/10/11 11:28:22;;;;;;;6.80;5.20;;;18.50;41.50;;;;;;5005860;28;20044;-81
2021/10/11 11:30:54;;;;;;;9.75;5.35;;;18.50;41.70;;;;;;5022050;28;20409;-83
2021/10/11 11:33:25;;;;;;;7.60;5.13;;;18.50;41.50;;;;;;5026119;28;20038;-82
2021/10/11 11:35:54;;;;;;;9.30;5.50;;;18.50;41.60;;;;;;5026706;28;20759;-82
2021/10/11 11:38:25;;;;;;;10.65;6.28;;;18.50;41.50;;;;;;5022987;28;20084;-82
2021/10/11 11:40:57;;;;;;;11.20;6.63;;;18.50;41.50;;;;;;5021661;28;20116;-83
2021/10/11 11:43:24;;;;;;;11.73;6.63;;;18.40;41.30;;;;;;5021307;28;20084;-84
2021/10/11 11:45:55;;;;;;;11.63;6.50;;;18.40;41.30;;;;;;5004164;28;20029;-82
2021/10/11 11:48:27;;;;;;;12.82;7.00;;;18.40;41.30;;;;;;5022626;28;20029;-82
2021/10/11 11:50:59;;;;;;;12.18;7.47;;;18.40;41.10;;;;;;5021778;28;20120;-82
2021/10/11 11:53:27;;;;;;;10.77;7.40;;;18.40;41.00;;;;;;5020710;28;20033;-83
2021/10/11 11:55:56;;;;;;;11.57;7.95;;;18.30;41.10;;;;;;5023306;28;20412;-83
2021/10/11 11:58:26;;;;;;;12.63;7.57;;;18.40;41.10;;;;;;5022746;28;20100;-82
2021/10/11 12:01:20;;;;;;;15.20;8.43;;;18.40;41.20;;;;;;5004357;28;20036;-83
2021/10/11 12:03:51;;;;;;;12.15;7.50;;;18.30;41.10;;;;;;5021386;28;20042;-82
2021/10/11 12:06:18;;;;;;;11.75;7.70;;;18.40;41.50;;;;;;5021179;28;20495;-82
2021/10/11 12:08:46;;;;;;;9.68;7.13;;;18.40;41.30;;;;;;5006505;28;20389;-83
2021/10/11 12:11:12;;;;;;;14.25;7.60;;;18.30;41.30;;;;;;5021697;28;20038;-81
2021/10/11 12:13:40;;;;;;;12.48;7.10;;;18.30;41.20;;;;;;5000589;28;20420;-81
2021/10/11 12:16:15;;;;;;;12.38;7.53;;;18.30;41.50;;;;;;5020197;28;20041;-81
2021/10/11 12:18:45;;;;;;;12.93;7.60;;;18.40;41.70;;;;;;5020685;28;20139;-81
2021/10/11 12:21:30;;;;;;;12.00;7.22;;;18.30;41.60;;;;;;5020719;28;20029;-81
2021/10/11 12:23:59;;;;;;;11.02;6.82;;;18.30;41.80;;;;;;5019614;28;20892;-80
2021/10/11 12:26:26;;;;;;;13.05;7.30;;;18.30;41.50;;;;;;5020835;28;20041;-82
2021/10/11 12:28:58;;;;;;;12.50;7.32;;;18.30;41.80;;;;;;5004820;28;20571;-81
2021/10/11 12:31:30;;;;;;;8.38;6.38;;;18.30;41.80;;;;;;5019918;28;20042;-81